Time;durP1;ratioP1;P1;durP2;ratioP2;P2;SDS_P1;SDS_P2;PMS_P1;PMS_P2;Temp;Humidity;BMP_temperature;BMP_pressure;BME280_temperature;BME280_humidity;BME280_pressure;Samples;Min_cycle;Max_cycle;Signal;HPM_P1;HPM_P2
2024/03/11 00:02:22;;;;;;;16.47;9.23;;;11.40;99.90;;;;;;6153974;23;20492;-63
2024/03/11 00:04:49;;;;;;;18.23;9.60;;;11.40;99.90;;;;;;6154514;23;20438;-64
2024/03/11 00:07:16;;;;;;;16.13;9.80;;;11.30;99.90;;;;;;6154727;23;20425;-64
2024/03/11 00:09:45;;;;;;;21.20;10.50;;;11.30;99.90;;;;;;6154610;23;20426;-64
2024/03/11 00:12:13;;;;;;;16.80;11.03;;;11.40;99.90;;;;;;6153786;23;20510;-61
2024/03/11 00:14:47;;;;;;;19.07;11.30;;;11.30;99.90;;;;;;6154835;23;20414;-63
2024/03/11 00:17:14;;;;;;;15.63;10.70;;;11.20;99.90;;;;;;6155739;23;20417;-64
2024/03/11 00:19:41;;;;;;;16.70;10.60;;;11.20;99.90;;;;;;6155506;23;20402;-64
2024/03/11 00:22:08;;;;;;;16.03;10.63;;;11.20;99.90;;;;;;6153817;23;20446;-63
2024/03/11 00:24:35;;;;;;;18.43;10.13;;;11.20;99.90;;;;;;6154081;23;20441;-64
2024/03/11 00:27:03;;;;;;;14.70;9.30;;;11.20;99.90;;;;;;6153042;23;20406;-64
2024/03/11 00:29:30;;;;;;;18.10;10.00;;;11.10;99.90;;;;;;6153603;23;20417;-65
2024/03/11 00:31:59;;;;;;;21.23;10.73;;;11.10;99.90;;;;;;6153423;23;20424;-63
2024/03/11 00:34:27;;;;;;;13.70;9.00;;;11.10;99.90;;;;;;6154068;23;20430;-64
2024/03/11 00:36:55;;;;;;;20.23;10.10;;;11.10;99.90;;;;;;6154022;23;20413;-64
2024/03/11 00:39:22;;;;;;;16.67;11.30;;;11.10;99.90;;;;;;6153614;23;20500;-64
2024/03/11 00:41:51;;;;;;;15.20;9.33;;;11.10;99.90;;;;;;6153401;23;20951;-64
2024/03/11 00:44:21;;;;;;;16.93;9.17;;;11.10;99.90;;;;;;6154060;23;20394;-64
2024/03/11 00:46:48;;;;;;;16.90;9.60;;;11.10;99.90;;;;;;6154095;23;20713;-64
2024/03/11 00:49:16;;;;;;;16.20;9.90;;;11.10;99.90;;;;;;6153940;23;20406;-63
2024/03/11 00:51:44;;;;;;;13.97;9.10;;;11.20;99.90;;;;;;6153546;23;20501;-64
2024/03/11 00:54:11;;;;;;;15.20;9.23;;;11.20;99.90;;;;;;6153422;23;20935;-63
2024/03/11 00:56:38;;;;;;;15.50;9.60;;;11.20;99.90;;;;;;6153986;23;20406;-63
2024/03/11 00:59:05;;;;;;;14.50;9.27;;;11.20;99.90;;;;;;6153845;23;20449;-63
2024/03/11 01:01:32;;;;;;;14.33;10.17;;;11.30;99.90;;;;;;6154596;23;20410;-63
2024/03/11 01:03:59;;;;;;;17.13;9.27;;;11.30;99.90;;;;;;6155911;23;20806;-64
2024/03/11 01:06:27;;;;;;;18.17;10.40;;;11.30;99.90;;;;;;6155092;23;20416;-63
2024/03/11 01:08:55;;;;;;;14.90;8.73;;;11.30;99.90;;;;;;6155549;23;20889;-63
2024/03/11 01:11:23;;;;;;;16.97;10.20;;;11.30;99.90;;;;;;6155144;23;20437;-63
2024/03/11 01:13:50;;;;;;;18.17;10.40;;;11.30;99.90;;;;;;6155306;23;20905;-63
2024/03/11 01:16:16;;;;;;;14.90;9.60;;;11.30;99.90;;;;;;6155451;23;20763;-64
2024/03/11 01:18:45;;;;;;;12.27;8.13;;;11.30;99.90;;;;;;6155841;23;20402;-65
2024/03/11 01:21:13;;;;;;;18.33;9.57;;;11.30;99.90;;;;;;6154993;23;20729;-64
2024/03/11 01:23:41;;;;;;;17.77;9.80;;;11.20;99.90;;;;;;6155423;23;20449;-63
2024/03/11 01:26:08;;;;;;;15.23;10.00;;;11.20;99.90;;;;;;6155611;23;20468;-63
2024/03/11 01:28:36;;;;;;;13.97;9.40;;;11.30;99.90;;;;;;6154913;23;20402;-63
2024/03/11 01:31:04;;;;;;;12.40;9.50;;;11.10;99.90;;;;;;6155275;23;20402;-63
2024/03/11 01:33:31;;;;;;;16.57;10.10;;;11.10;99.90;;;;;;6154444;23;20426;-64
2024/03/11 01:35:59;;;;;;;12.40;7.90;;;11.00;99.90;;;;;;6155395;23;20422;-65
2024/03/11 01:38:26;;;;;;;14.77;9.90;;;11.00;99.90;;;;;;6154946;23;20413;-64
2024/03/11 01:40:56;;;;;;;25.70;9.70;;;11.00;99.90;;;;;;6155624;23;20406;-63
2024/03/11 01:43:24;;;;;;;13.10;9.10;;;11.00;99.90;;;;;;6154268;23;20767;-64
2024/03/11 01:45:51;;;;;;;18.00;10.77;;;10.90;99.90;;;;;;6154960;23;20433;-64
2024/03/11 01:48:18;;;;;;;14.07;8.87;;;10.90;99.90;;;;;;6155030;23;20433;-65
2024/03/11 01:50:45;;;;;;;15.13;10.17;;;10.90;99.90;;;;;;6155239;23;20477;-64
2024/03/11 01:53:12;;;;;;;14.00;9.00;;;10.90;99.90;;;;;;6154806;23;21129;-63
2024/03/11 01:55:39;;;;;;;16.47;9.63;;;10.90;99.90;;;;;;6155164;23;20434;-64
2024/03/11 01:58:09;;;;;;;17.03;9.57;;;10.90;99.90;;;;;;6154819;23;20465;-62
2024/03/11 02:00:37;;;;;;;17.30;9.97;;;10.90;99.90;;;;;;6155249;23;20416;-63
2024/03/11 02:03:06;;;;;;;15.10;9.97;;;10.90;99.90;;;;;;6155446;23;20818;-64
2024/03/11 02:05:34;;;;;;;12.10;9.40;;;10.90;99.90;;;;;;6154893;23;20710;-63
2024/03/11 02:08:02;;;;;;;14.87;9.57;;;10.90;99.90;;;;;;6155025;23;20781;-63
2024/03/11 02:10:30;;;;;;;14.77;9.20;;;10.90;99.90;;;;;;6154625;23;20485;-64
2024/03/11 02:12:58;;;;;;;16.03;10.03;;;10.80;99.90;;;;;;6153482;23;20508;-63
2024/03/11 02:15:27;;;;;;;13.00;9.50;;;10.80;99.90;;;;;;6154593;23;20406;-62
2024/03/11 02:17:54;;;;;;;14.73;9.20;;;10.90;99.90;;;;;;6154757;23;20784;-65
2024/03/11 02:20:26;;;;;;;10.33;8.03;;;10.90;99.90;;;;;;6154969;23;20406;-63
2024/03/11 02:22:54;;;;;;;16.33;9.33;;;10.90;99.90;;;;;;6154009;23;20497;-63
2024/03/11 02:25:26;;;;;;;12.50;8.43;;;10.90;99.90;;;;;;6154753;23;20412;-61
2024/03/11 02:27:54;;;;;;;16.60;9.50;;;11.00;99.90;;;;;;6154922;23;20438;-63
2024/03/11 02:30:21;;;;;;;16.17;8.83;;;11.00;99.90;;;;;;6154673;23;20736;-63
2024/03/11 02:32:48;;;;;;;18.03;10.23;;;11.00;99.90;;;;;;6154491;23;20506;-63
2024/03/11 02:35:16;;;;;;;13.57;8.97;;;11.00;99.90;;;;;;6129169;23;20414;-64
2024/03/11 02:37:44;;;;;;;12.87;8.40;;;11.00;99.90;;;;;;6155837;23;20425;-64
2024/03/11 02:40:12;;;;;;;19.53;9.00;;;11.00;99.90;;;;;;6156853;23;20398;-64
2024/03/11 02:42:41;;;;;;;15.97;9.20;;;11.00;99.90;;;;;;6154989;23;20446;-63
2024/03/11 02:45:11;;;;;;;14.73;9.07;;;11.00;99.90;;;;;;6156540;23;20430;-63
2024/03/11 02:47:38;;;;;;;19.90;8.27;;;11.00;99.90;;;;;;6156614;23;20410;-63
2024/03/11 02:50:07;;;;;;;16.27;8.07;;;11.00;99.90;;;;;;6156351;23;20437;-63
2024/03/11 02:52:34;;;;;;;17.10;10.20;;;11.00;99.90;;;;;;6156817;23;20422;-63
2024/03/11 02:55:02;;;;;;;15.90;10.07;;;11.00;99.90;;;;;;6156602;23;20482;-63
2024/03/11 02:57:29;;;;;;;20.10;10.13;;;11.10;99.90;;;;;;6156043;23;20716;-63
2024/03/11 02:59:57;;;;;;;13.47;9.00;;;11.10;99.90;;;;;;6155067;23;20465;-63
2024/03/11 03:02:24;;;;;;;12.53;8.13;;;11.10;99.90;;;;;;6154770;23;20480;-64
2024/03/11 03:04:51;;;;;;;14.63;9.20;;;11.10;99.90;;;;;;6154789;23;20438;-63
2024/03/11 03:07:19;;;;;;;17.40;9.07;;;11.10;99.90;;;;;;6155133;23;20402;-63
2024/03/11 03:09:45;;;;;;;11.83;8.80;;;11.10;99.90;;;;;;6154869;23;20485;-65
2024/03/11 03:12:14;;;;;;;11.27;8.37;;;11.10;99.90;;;;;;6154370;23;20438;-62
2024/03/11 03:14:41;;;;;;;13.87;8.77;;;11.10;99.90;;;;;;6155540;23;20448;-63
2024/03/11 03:17:09;;;;;;;13.50;8.37;;;11.10;99.90;;;;;;6154922;23;20457;-63
2024/03/11 03:19:36;;;;;;;12.40;8.60;;;11.10;99.90;;;;;;6155027;23;20968;-64
2024/03/11 03:22:03;;;;;;;18.17;9.00;;;11.10;99.90;;;;;;6154140;23;20506;-64
2024/03/11 03:24:30;;;;;;;19.53;9.13;;;11.10;99.90;;;;;;6154346;23;20520;-63
2024/03/11 03:26:58;;;;;;;11.87;7.60;;;11.10;99.90;;;;;;6154953;23;20407;-63
2024/03/11 03:29:30;;;;;;;17.00;8.63;;;11.10;99.90;;;;;;6154291;23;20799;-63
2024/03/11 03:31:57;;;;;;;14.40;8.47;;;11.10;99.90;;;;;;6153860;23;20723;-61
2024/03/11 03:34:25;;;;;;;16.30;8.03;;;11.10;99.90;;;;;;6153924;23;20398;-63
2024/03/11 03:36:53;;;;;;;13.00;8.53;;;11.10;99.90;;;;;;6153722;23;20410;-61
2024/03/11 03:39:20;;;;;;;13.27;7.93;;;11.10;99.90;;;;;;6154130;23;20406;-63
2024/03/11 03:41:47;;;;;;;11.90;8.27;;;11.10;99.90;;;;;;6153261;23;20430;-63
2024/03/11 03:44:16;;;;;;;13.67;8.73;;;11.10;99.90;;;;;;6153887;23;20438;-63
2024/03/11 03:46:42;;;;;;;13.97;9.20;;;11.10;99.90;;;;;;6154309;23;20437;-63
2024/03/11 03:49:09;;;;;;;16.97;8.47;;;11.10;99.90;;;;;;6154499;23;20413;-65
2024/03/11 03:51:37;;;;;;;14.63;8.03;;;11.10;99.90;;;;;;6154191;23;20505;-64
2024/03/11 03:54:04;;;;;;;15.13;9.23;;;11.10;99.90;;;;;;6154866;23;20497;-64
2024/03/11 03:56:31;;;;;;;12.63;9.30;;;11.10;99.90;;;;;;6153743;23;20413;-63
2024/03/11 03:58:58;;;;;;;14.37;9.03;;;11.10;99.90;;;;;;6154175;23;20406;-62
2024/03/11 04:01:26;;;;;;;12.57;8.30;;;11.10;99.90;;;;;;6153558;23;20433;-62
2024/03/11 04:03:53;;;;;;;16.33;10.10;;;11.10;99.90;;;;;;6154097;23;20444;-64
2024/03/11 04:06:21;;;;;;;13.00;8.73;;;11.10;99.90;;;;;;6154227;23;20406;-62
2024/03/11 04:08:50;;;;;;;12.93;9.23;;;11.10;99.90;;;;;;6154142;23;20473;-63
2024/03/11 04:11:18;;;;;;;14.90;9.30;;;11.10;99.90;;;;;;6154482;23;20909;-62
2024/03/11 04:13:45;;;;;;;15.00;8.90;;;11.10;99.90;;;;;;6153646;23;20457;-63
2024/03/11 04:16:16;;;;;;;15.90;8.77;;;11.10;99.90;;;;;;6154205;23;20506;-62
2024/03/11 04:18:42;;;;;;;13.20;8.67;;;11.00;99.90;;;;;;6154814;23;20393;-63
2024/03/11 04:21:09;;;;;;;16.30;9.00;;;11.10;99.90;;;;;;6153751;23;20403;-63
2024/03/11 04:23:37;;;;;;;14.00;8.20;;;11.10;99.90;;;;;;6153385;23;20446;-63
2024/03/11 04:26:07;;;;;;;15.30;9.17;;;11.10;99.90;;;;;;6153678;23;20445;-64
2024/03/11 04:28:36;;;;;;;13.40;8.37;;;11.10;99.90;;;;;;6154960;23;20391;-65
2024/03/11 04:31:04;;;;;;;10.97;7.53;;;11.20;99.90;;;;;;6154232;23;20406;-64
2024/03/11 04:33:31;;;;;;;14.63;8.43;;;11.20;99.90;;;;;;6153750;23;20421;-63
2024/03/11 04:35:58;;;;;;;21.80;10.20;;;11.10;99.90;;;;;;6155670;23;20434;-63
2024/03/11 04:38:26;;;;;;;18.23;10.90;;;11.20;99.90;;;;;;6156343;23;20406;-63
2024/03/11 04:40:53;;;;;;;13.00;10.27;;;11.20;99.90;;;;;;6155208;23;20405;-63
2024/03/11 04:43:21;;;;;;;18.37;9.93;;;11.10;99.90;;;;;;6155335;23;20481;-63
2024/03/11 04:45:48;;;;;;;18.13;8.90;;;11.10;99.90;;;;;;6155800;23;20402;-63
2024/03/11 04:48:15;;;;;;;14.20;9.60;;;11.20;99.90;;;;;;6155641;23;20485;-63
2024/03/11 04:50:42;;;;;;;14.50;9.50;;;11.20;99.90;;;;;;6155899;23;20738;-63
2024/03/11 04:53:09;;;;;;;11.47;7.80;;;11.20;99.90;;;;;;6155101;23;20440;-63
2024/03/11 04:55:37;;;;;;;15.07;9.93;;;11.20;99.90;;;;;;6155786;23;20493;-63
2024/03/11 04:58:04;;;;;;;16.53;9.53;;;11.20;99.90;;;;;;6155886;23;20410;-63
2024/03/11 05:00:35;;;;;;;14.20;8.00;;;11.20;99.90;;;;;;6155061;23;20402;-63
2024/03/11 05:03:04;;;;;;;11.00;8.00;;;11.20;99.90;;;;;;6155386;23;20448;-62
2024/03/11 05:05:34;;;;;;;11.00;8.23;;;11.20;99.90;;;;;;6157134;23;20448;-62
2024/03/11 05:08:01;;;;;;;19.00;8.97;;;11.10;99.90;;;;;;6155417;23;20391;-63
2024/03/11 05:10:28;;;;;;;14.93;8.23;;;11.10;99.90;;;;;;6155619;23;20479;-63
2024/03/11 05:12:55;;;;;;;14.60;10.10;;;11.10;99.90;;;;;;6154445;23;20967;-62
2024/03/11 05:15:22;;;;;;;12.90;8.70;;;11.20;99.90;;;;;;6155573;23;20465;-63
2024/03/11 05:17:50;;;;;;;14.70;7.77;;;11.20;99.90;;;;;;6155480;23;20740;-63
2024/03/11 05:20:18;;;;;;;14.07;8.60;;;11.20;99.90;;;;;;6155475;23;20409;-63
2024/03/11 05:22:46;;;;;;;14.27;8.73;;;11.20;99.90;;;;;;6155314;23;20492;-64
2024/03/11 05:25:15;;;;;;;15.53;9.03;;;11.20;99.90;;;;;;6157478;23;20409;-64
2024/03/11 05:27:42;;;;;;;15.63;9.80;;;11.20;99.90;;;;;;6158454;23;20413;-63
2024/03/11 05:30:10;;;;;;;18.77;9.70;;;11.20;99.90;;;;;;6157991;23;20402;-64
2024/03/11 05:32:37;;;;;;;13.60;8.60;;;11.20;99.90;;;;;;6156429;23;20521;-63
2024/03/11 05:35:05;;;;;;;13.10;8.87;;;11.20;99.90;;;;;;6156256;23;20429;-64
2024/03/11 05:37:33;;;;;;;12.40;8.47;;;11.10;99.90;;;;;;6155758;23;20430;-63
2024/03/11 05:40:01;;;;;;;10.33;7.50;;;11.10;99.90;;;;;;6155309;23;20421;-62
2024/03/11 05:42:28;;;;;;;14.33;9.27;;;11.20;99.90;;;;;;6155265;23;20453;-65
2024/03/11 05:44:56;;;;;;;14.37;8.73;;;11.20;99.90;;;;;;6155363;23;20482;-61
2024/03/11 05:47:25;;;;;;;10.77;8.43;;;11.20;99.90;;;;;;6154379;23;20402;-64
2024/03/11 05:49:52;;;;;;;15.10;9.20;;;11.20;99.90;;;;;;6155324;23;20437;-63
2024/03/11 05:52:24;;;;;;;13.57;8.10;;;11.20;99.90;;;;;;6154165;23;20454;-64
2024/03/11 05:54:51;;;;;;;19.60;10.13;;;11.20;99.90;;;;;;6154967;23;20393;-63
2024/03/11 05:57:25;;;;;;;12.60;8.70;;;11.20;99.90;;;;;;6155204;23;20778;-64
2024/03/11 05:59:52;;;;;;;15.30;8.87;;;11.20;99.90;;;;;;6155166;23;20395;-63
2024/03/11 06:02:20;;;;;;;13.30;8.33;;;11.20;99.90;;;;;;6154328;23;20947;-64
2024/03/11 06:04:47;;;;;;;12.43;8.03;;;11.20;99.90;;;;;;6155025;23;20442;-63
2024/03/11 06:07:19;;;;;;;14.07;9.43;;;11.20;99.90;;;;;;6155515;23;20414;-63
2024/03/11 06:09:47;;;;;;;12.57;8.77;;;11.30;99.90;;;;;;6155232;23;20390;-64
2024/03/11 06:12:14;;;;;;;14.37;9.43;;;11.20;99.90;;;;;;6154383;23;20517;-65
2024/03/11 06:14:41;;;;;;;12.97;9.50;;;11.30;99.90;;;;;;6154563;23;20922;-65
2024/03/11 06:17:10;;;;;;;18.23;8.87;;;11.30;99.90;;;;;;6154360;23;20410;-63
2024/03/11 06:19:38;;;;;;;12.80;8.83;;;11.30;99.90;;;;;;6155031;23;20409;-64
2024/03/11 06:22:05;;;;;;;12.93;9.80;;;11.30;99.90;;;;;;6154304;23;20444;-64
2024/03/11 06:24:34;;;;;;;15.83;9.17;;;11.40;99.90;;;;;;6153910;23;20525;-64
2024/03/11 06:27:04;;;;;;;17.83;9.47;;;11.40;99.90;;;;;;6154846;23;20493;-64
2024/03/11 06:29:31;;;;;;;14.37;8.70;;;11.40;99.90;;;;;;6154317;23;20675;-64
2024/03/11 06:31:59;;;;;;;15.60;8.40;;;11.40;99.90;;;;;;6153957;23;20426;-63
2024/03/11 06:34:27;;;;;;;11.53;8.47;;;11.40;99.90;;;;;;6155215;23;20717;-63
2024/03/11 06:36:54;;;;;;;12.70;8.87;;;11.40;99.90;;;;;;6154538;23;20488;-63
2024/03/11 06:39:21;;;;;;;15.50;8.40;;;11.40;99.90;;;;;;6154812;23;20410;-63
2024/03/11 06:41:48;;;;;;;10.83;9.00;;;11.40;99.90;;;;;;6153249;23;20454;-63
2024/03/11 06:44:17;;;;;;;15.43;10.20;;;11.40;99.90;;;;;;6156009;23;20821;-62
2024/03/11 06:46:44;;;;;;;12.80;9.17;;;11.40;99.90;;;;;;6154368;23;20407;-55
2024/03/11 06:49:11;;;;;;;14.30;8.70;;;11.40;99.90;;;;;;6154389;23;20497;-51
2024/03/11 06:51:38;;;;;;;14.17;9.63;;;11.40;99.90;;;;;;6154359;23;20493;-52
2024/03/11 06:54:06;;;;;;;12.90;9.90;;;11.40;99.90;;;;;;6154347;23;20402;-53
2024/03/11 06:56:33;;;;;;;19.93;8.60;;;11.40;99.90;;;;;;6154346;23;20406;-54
2024/03/11 06:59:00;;;;;;;16.20;9.80;;;11.40;99.90;;;;;;6154504;23;20481;-56
2024/03/11 07:01:29;;;;;;;10.80;7.40;;;11.50;99.90;;;;;;6154230;23;20493;-57
2024/03/11 07:03:56;;;;;;;17.93;9.53;;;11.50;99.90;;;;;;6154487;23;20489;-55
2024/03/11 07:06:24;;;;;;;13.50;9.40;;;11.50;99.90;;;;;;6154526;23;20402;-54
2024/03/11 07:08:51;;;;;;;12.30;7.50;;;11.50;99.90;;;;;;6153185;23;20963;-55
2024/03/11 07:11:18;;;;;;;13.27;8.40;;;11.50;99.90;;;;;;6154007;23;20449;-57
2024/03/11 07:13:44;;;;;;;14.37;8.83;;;11.50;99.90;;;;;;6153934;23;20406;-51
2024/03/11 07:16:12;;;;;;;9.93;7.40;;;11.50;99.90;;;;;;6153241;23;20498;-52
2024/03/11 07:18:42;;;;;;;17.13;8.17;;;11.60;99.90;;;;;;6153924;23;20735;-56
2024/03/11 07:21:09;;;;;;;11.37;8.63;;;11.60;99.90;;;;;;6153403;23;20406;-54
2024/03/11 07:23:36;;;;;;;18.50;9.33;;;11.60;99.90;;;;;;6153552;23;20967;-57
2024/03/11 07:26:03;;;;;;;11.87;9.30;;;11.70;99.90;;;;;;6153578;23;20430;-53
2024/03/11 07:28:31;;;;;;;16.67;10.20;;;11.80;99.90;;;;;;6154190;23;20413;-54
2024/03/11 07:30:58;;;;;;;15.80;8.67;;;11.80;99.90;;;;;;6153922;23;20493;-56
2024/03/11 07:33:25;;;;;;;20.50;9.40;;;11.80;99.90;;;;;;6153568;23;20785;-52
2024/03/11 07:35:54;;;;;;;14.23;9.03;;;11.90;99.90;;;;;;6154112;23;20433;-64
2024/03/11 07:38:23;;;;;;;16.10;8.67;;;12.00;99.90;;;;;;6154038;23;20490;-63
2024/03/11 07:40:50;;;;;;;15.33;10.07;;;12.00;99.90;;;;;;6153378;23;20460;-64
2024/03/11 07:43:16;;;;;;;13.47;8.10;;;12.10;99.90;;;;;;6153835;23;20433;-63
2024/03/11 07:45:43;;;;;;;12.43;9.00;;;12.10;99.90;;;;;;6154057;23;20445;-63
2024/03/11 07:48:12;;;;;;;13.23;8.60;;;12.20;99.90;;;;;;6152425;23;20442;-62
2024/03/11 07:50:40;;;;;;;13.93;9.20;;;12.20;99.90;;;;;;6153603;23;20410;-63
2024/03/11 07:53:08;;;;;;;11.40;8.37;;;12.20;99.90;;;;;;6153050;23;20422;-64
2024/03/11 07:55:37;;;;;;;15.27;8.63;;;12.20;99.90;;;;;;6154136;23;20481;-64
2024/03/11 07:58:06;;;;;;;13.87;8.97;;;12.20;99.90;;;;;;6153654;23;20410;-63
2024/03/11 08:00:36;;;;;;;13.97;8.23;;;12.20;99.90;;;;;;6154027;23;20441;-64
2024/03/11 08:03:04;;;;;;;15.77;9.53;;;12.20;99.90;;;;;;6154128;23;20430;-64
2024/03/11 08:05:32;;;;;;;15.80;9.33;;;12.20;99.90;;;;;;6154768;23;20442;-63
2024/03/11 08:07:59;;;;;;;14.83;9.10;;;12.20;99.90;;;;;;6154933;23;20413;-64
2024/03/11 08:10:27;;;;;;;14.73;10.50;;;12.20;99.90;;;;;;6154578;23;20412;-63
2024/03/11 08:12:55;;;;;;;14.23;8.80;;;12.30;99.90;;;;;;6156502;23;20442;-64
2024/03/11 08:15:22;;;;;;;20.70;10.77;;;12.20;99.90;;;;;;6157870;23;20492;-64
2024/03/11 08:17:50;;;;;;;15.10;9.50;;;12.20;99.90;;;;;;6155895;23;20402;-62
2024/03/11 08:20:20;;;;;;;18.73;9.00;;;12.20;99.90;;;;;;6155487;23;20988;-63
2024/03/11 08:22:49;;;;;;;17.53;10.60;;;12.20;99.90;;;;;;6155523;23;20795;-63
2024/03/11 08:25:17;;;;;;;15.63;10.47;;;12.20;99.90;;;;;;6155321;23;20446;-64
2024/03/11 08:27:46;;;;;;;15.50;9.50;;;12.30;99.90;;;;;;6155596;23;20406;-63
2024/03/11 08:30:15;;;;;;;15.70;10.63;;;12.30;99.90;;;;;;6155961;23;20406;-62
2024/03/11 08:32:42;;;;;;;18.20;10.30;;;12.30;99.90;;;;;;6154985;23;20437;-63
2024/03/11 08:35:09;;;;;;;13.87;10.67;;;12.40;99.90;;;;;;6155987;23;20525;-64
2024/03/11 08:37:35;;;;;;;17.50;12.00;;;12.50;99.90;;;;;;6155926;23;20402;-63
2024/03/11 08:40:04;;;;;;;18.47;11.23;;;12.50;99.90;;;;;;6154985;23;20488;-64
2024/03/11 08:42:31;;;;;;;16.43;11.37;;;12.40;99.90;;;;;;6154633;23;20426;-63
2024/03/11 08:44:59;;;;;;;17.07;11.07;;;12.50;99.90;;;;;;6155662;23;20837;-64
2024/03/11 08:47:27;;;;;;;15.60;10.50;;;12.50;99.90;;;;;;6155826;23;20802;-63
2024/03/11 08:49:54;;;;;;;22.00;13.03;;;12.50;99.90;;;;;;6155639;23;20410;-62
2024/03/11 08:52:21;;;;;;;16.33;11.00;;;12.50;99.90;;;;;;6154983;23;20454;-59
2024/03/11 08:54:50;;;;;;;19.73;12.57;;;12.50;99.90;;;;;;6156190;23;20448;-63
2024/03/11 08:57:17;;;;;;;18.67;13.27;;;12.50;99.90;;;;;;6155623;23;20469;-63
2024/03/11 08:59:45;;;;;;;18.97;12.93;;;12.50;99.90;;;;;;6155753;23;20398;-64
2024/03/11 09:02:14;;;;;;;23.57;14.30;;;12.50;99.90;;;;;;6155244;23;20518;-60
2024/03/11 09:04:41;;;;;;;19.73;14.97;;;12.50;99.90;;;;;;6155561;23;20438;-62
2024/03/11 09:07:09;;;;;;;27.43;16.10;;;12.50;99.90;;;;;;6155730;23;20402;-63
2024/03/11 09:09:36;;;;;;;24.37;15.07;;;12.40;99.90;;;;;;6155604;23;20489;-61
2024/03/11 09:12:05;;;;;;;26.73;16.93;;;12.40;99.90;;;;;;6154585;23;20430;-63
2024/03/11 09:14:32;;;;;;;30.33;17.50;;;12.40;99.90;;;;;;6156144;23;20413;-64
2024/03/11 09:17:01;;;;;;;24.07;16.03;;;12.40;99.90;;;;;;6155587;23;20406;-64
2024/03/11 09:19:30;;;;;;;30.10;18.03;;;12.40;99.90;;;;;;6155417;23;20402;-64
2024/03/11 09:21:58;;;;;;;26.00;15.60;;;12.50;99.90;;;;;;6155027;23;20434;-64
2024/03/11 09:24:25;;;;;;;23.13;15.47;;;12.40;99.90;;;;;;6155664;23;20442;-62
2024/03/11 09:26:53;;;;;;;23.30;16.63;;;12.40;99.90;;;;;;6156177;23;20406;-64
2024/03/11 09:29:22;;;;;;;24.13;16.20;;;12.30;99.90;;;;;;6155702;23;20441;-64
2024/03/11 09:31:50;;;;;;;24.27;16.10;;;12.30;99.90;;;;;;6155156;23;20480;-64
2024/03/11 09:34:18;;;;;;;25.33;17.27;;;12.30;99.90;;;;;;6155552;23;20402;-64
2024/03/11 09:36:46;;;;;;;24.37;17.70;;;12.20;99.90;;;;;;6155370;23;20788;-64
2024/03/11 09:39:14;;;;;;;31.77;17.80;;;12.20;99.90;;;;;;6155461;23;20434;-63
2024/03/11 09:41:45;;;;;;;21.63;14.90;;;12.20;99.90;;;;;;6154575;23;20461;-63
2024/03/11 09:44:16;;;;;;;28.10;17.67;;;12.20;99.90;;;;;;6155037;23;20401;-63
2024/03/11 09:46:45;;;;;;;25.00;15.17;;;12.30;99.90;;;;;;6155111;23;20946;-63
2024/03/11 09:49:14;;;;;;;24.27;16.67;;;12.30;99.90;;;;;;6155034;23;20768;-64
2024/03/11 09:51:45;;;;;;;26.80;17.53;;;12.30;99.90;;;;;;6155134;23;20426;-62
2024/03/11 09:54:16;;;;;;;26.60;17.83;;;12.40;99.90;;;;;;6155441;23;20410;-64
2024/03/11 09:56:47;;;;;;;22.73;15.70;;;12.50;99.90;;;;;;6155514;23;20414;-63
2024/03/11 09:59:18;;;;;;;26.53;17.43;;;12.40;99.90;;;;;;6156059;23;20391;-64
2024/03/11 10:01:52;;;;;;;22.63;15.10;;;12.50;99.90;;;;;;6154551;23;20920;-63
2024/03/11 10:04:21;;;;;;;22.70;16.63;;;12.50;99.90;;;;;;6155262;23;20766;-63
2024/03/11 10:06:56;;;;;;;29.33;17.70;;;12.50;99.90;;;;;;6155031;23;20406;-62
2024/03/11 10:09:25;;;;;;;25.20;17.23;;;12.50;99.90;;;;;;6155364;23;20390;-65
2024/03/11 10:12:03;;;;;;;29.00;16.73;;;12.60;99.90;;;;;;6154244;23;20437;-64
2024/03/11 10:14:34;;;;;;;22.10;14.53;;;12.70;99.90;;;;;;6154922;23;20410;-63
2024/03/11 10:17:21;;;;;;;18.60;14.40;;;12.80;99.90;;;;;;6155069;23;20386;-64
2024/03/11 10:19:52;;;;;;;20.07;14.43;;;12.90;99.90;;;;;;6154660;23;20434;-62
2024/03/11 10:22:23;;;;;;;20.70;15.23;;;13.20;99.90;;;;;;6159772;23;20445;-64
2024/03/11 10:24:54;;;;;;;25.77;16.63;;;13.50;99.90;;;;;;6184269;23;20441;-63
2024/03/11 10:27:22;;;;;;;21.37;15.03;;;13.80;99.90;;;;;;6184820;23;20708;-62
2024/03/11 10:29:50;;;;;;;21.07;14.93;;;14.00;99.90;;;;;;6184633;23;20476;-63
2024/03/11 10:32:36;;;;;;;21.40;15.40;;;14.20;99.90;;;;;;6172773;23;20422;-64
2024/03/11 10:35:04;;;;;;;22.13;14.13;;;14.30;99.90;;;;;;6155285;23;20417;-62
2024/03/11 10:37:31;;;;;;;19.40;12.33;;;14.30;99.90;;;;;;6156882;23;20402;-62
2024/03/11 10:40:01;;;;;;;15.47;11.63;;;14.30;99.90;;;;;;6157351;23;20449;-64
2024/03/11 10:42:34;;;;;;;19.90;13.17;;;14.30;99.90;;;;;;6156812;23;20469;-63
2024/03/11 10:45:05;;;;;;;15.50;12.93;;;14.50;99.90;;;;;;6157776;23;20426;-63
2024/03/11 10:47:33;;;;;;;18.10;13.70;;;15.10;99.90;;;;;;6158715;23;20391;-63
2024/03/11 10:50:01;;;;;;;15.17;12.80;;;15.60;99.90;;;;;;6158045;23;20403;-63
2024/03/11 10:52:33;;;;;;;21.57;14.10;;;16.00;99.90;;;;;;6155414;23;20994;-63
2024/03/11 10:55:05;;;;;;;19.70;14.43;;;15.90;99.90;;;;;;6155250;23;20837;-63
2024/03/11 10:57:39;;;;;;;24.00;16.47;;;15.90;99.90;;;;;;6156962;23;20434;-62
2024/03/11 11:00:19;;;;;;;20.60;14.77;;;15.70;99.90;;;;;;6157619;23;20395;-62
2024/03/11 11:02:53;;;;;;;23.00;13.47;;;15.30;99.90;;;;;;6158908;23;20462;-62
2024/03/11 11:05:24;;;;;;;18.83;13.87;;;15.00;99.90;;;;;;6155903;23;20481;-63
2024/03/11 11:07:53;;;;;;;22.57;14.60;;;14.80;99.90;;;;;;6155374;23;20416;-63
2024/03/11 11:10:22;;;;;;;21.13;13.63;;;14.60;99.90;;;;;;6155603;23;20457;-63
2024/03/11 11:12:52;;;;;;;20.80;13.50;;;14.50;99.90;;;;;;6154736;23;20426;-63
2024/03/11 11:15:22;;;;;;;21.57;16.63;;;14.40;99.90;;;;;;6155125;23;20430;-64
2024/03/11 11:17:50;;;;;;;21.80;14.00;;;14.40;99.90;;;;;;6155016;23;20464;-63
2024/03/11 11:20:37;;;;;;;21.23;14.33;;;14.50;99.90;;;;;;6155367;23;20426;-62
2024/03/11 11:23:10;;;;;;;19.97;14.73;;;14.50;99.90;;;;;;6154025;23;20937;-64
2024/03/11 11:25:44;;;;;;;23.70;14.83;;;14.60;99.90;;;;;;6154723;23;20425;-63
2024/03/11 11:28:14;;;;;;;19.63;15.00;;;14.60;99.90;;;;;;6154840;23;20419;-64
2024/03/11 11:30:43;;;;;;;18.57;13.77;;;14.50;99.90;;;;;;6154769;23;20486;-64
2024/03/11 11:33:11;;;;;;;17.37;13.30;;;14.60;99.90;;;;;;6154303;23;20429;-64
2024/03/11 11:35:41;;;;;;;16.97;11.97;;;14.60;99.90;;;;;;6155880;23;20453;-63
2024/03/11 11:38:29;;;;;;;19.23;13.43;;;14.80;99.90;;;;;;6156049;23;20457;-64
2024/03/11 11:40:58;;;;;;;16.00;13.10;;;14.90;99.90;;;;;;6154208;23;20402;-64
2024/03/11 11:43:45;;;;;;;16.80;12.23;;;15.10;99.90;;;;;;6153460;23;20494;-64
2024/03/11 11:46:40;;;;;;;19.87;14.00;;;15.30;99.90;;;;;;6153985;23;20967;-63
2024/03/11 11:49:17;;;;;;;17.13;11.97;;;15.40;99.90;;;;;;6156037;23;20401;-63
2024/03/11 11:51:45;;;;;;;19.67;13.73;;;15.40;99.90;;;;;;6158020;23;20454;-63
2024/03/11 11:54:25;;;;;;;16.70;11.07;;;15.30;99.90;;;;;;6158009;23;20429;-62
2024/03/11 11:57:04;;;;;;;15.30;10.73;;;15.20;99.90;;;;;;6159045;23;20382;-63
2024/03/11 11:59:31;;;;;;;16.43;11.40;;;15.20;99.90;;;;;;6159230;23;20386;-64
2024/03/11 12:02:00;;;;;;;19.90;12.47;;;15.20;99.90;;;;;;6158835;23;20929;-63
2024/03/11 12:04:27;;;;;;;15.70;11.50;;;15.20;99.90;;;;;;6159741;23;20738;-64
2024/03/11 12:06:55;;;;;;;17.57;11.60;;;15.20;99.90;;;;;;6159406;23;20446;-63
2024/03/11 12:09:23;;;;;;;16.77;11.73;;;15.40;99.90;;;;;;6156420;23;20456;-63
2024/03/11 12:11:50;;;;;;;18.27;10.67;;;15.30;99.90;;;;;;6157109;23;20734;-62
2024/03/11 12:14:19;;;;;;;13.80;11.53;;;15.30;99.90;;;;;;6158551;23;20478;-63
2024/03/11 12:16:47;;;;;;;17.83;12.27;;;15.40;99.90;;;;;;6160360;23;20406;-62
2024/03/11 12:19:14;;;;;;;15.10;10.90;;;15.30;99.90;;;;;;6160490;23;20406;-65
2024/03/11 12:21:42;;;;;;;16.23;12.20;;;15.20;99.90;;;;;;6161024;23;20422;-64
2024/03/11 12:24:13;;;;;;;14.77;10.40;;;15.20;99.90;;;;;;6160633;23;20414;-64
2024/03/11 12:26:41;;;;;;;14.70;10.87;;;15.30;99.90;;;;;;6161923;23;20430;-63
2024/03/11 12:29:14;;;;;;;14.67;10.27;;;15.30;99.90;;;;;;6160526;23;20407;-63
2024/03/11 12:31:42;;;;;;;34.97;21.47;;;15.30;99.90;;;;;;6158751;23;20430;-63
2024/03/11 12:34:12;;;;;;;22.97;15.43;;;15.30;99.90;;;;;;6159252;23;20711;-63
2024/03/11 12:36:41;;;;;;;16.07;12.60;;;15.20;99.90;;;;;;6158725;23;20402;-64
2024/03/11 12:39:25;;;;;;;18.57;11.47;;;15.20;99.90;;;;;;6158255;23;20410;-63
2024/03/11 12:41:52;;;;;;;15.20;10.50;;;15.00;99.90;;;;;;6157824;23;20434;-63